createdAt,value
2023-03-31T00:00:26.700Z,10.40
2023-03-31T00:03:29.932Z,10.50
2023-03-31T00:06:38.229Z,10.50
2023-03-31T00:09:46.512Z,10.50
2023-03-31T00:12:51.443Z,10.40
2023-03-31T00:15:59.685Z,10.40
2023-03-31T00:19:03.427Z,10.40
2023-03-31T00:22:06.951Z,10.50
2023-03-31T00:25:11.323Z,10.50
2023-03-31T00:28:15.976Z,10.40
2023-03-31T00:31:19.726Z,10.50
2023-03-31T00:34:23.136Z,10.40
2023-03-31T00:37:28.454Z,10.50
2023-03-31T00:40:31.667Z,10.40
2023-03-31T00:43:38.858Z,10.30
2023-03-31T00:46:52.629Z,10.40
2023-03-31T00:49:58.394Z,10.40
2023-03-31T00:53:04.952Z,10.40
2023-03-31T00:56:12.912Z,10.30
2023-03-31T00:59:18.960Z,10.20
2023-03-31T01:02:25.732Z,10.20
2023-03-31T01:05:33.942Z,10.20
2023-03-31T01:08:43.409Z,10.20
2023-03-31T01:11:47.875Z,10.10
2023-03-31T01:14:52.739Z,10.10
2023-03-31T01:17:57.676Z,10.10
2023-03-31T01:21:49.301Z,10.00
2023-03-31T01:25:20.038Z,10.00
2023-03-31T01:28:33.213Z,10.00
2023-03-31T01:32:09.400Z,10.00
2023-03-31T01:35:36.558Z,10.00
2023-03-31T01:39:07.482Z,9.80
2023-03-31T01:42:18.412Z,9.80
2023-03-31T01:45:34.932Z,9.80
2023-03-31T01:48:48.609Z,9.80
2023-03-31T01:52:00.372Z,9.80
2023-03-31T01:55:08.570Z,9.70
2023-03-31T01:58:18.862Z,9.70
2023-03-31T02:01:26.640Z,9.60
2023-03-31T02:04:35.117Z,9.60
2023-03-31T02:07:42.941Z,9.50
2023-03-31T02:10:48.221Z,9.60
2023-03-31T02:13:55.655Z,9.60
2023-03-31T02:17:02.356Z,9.60
2023-03-31T02:20:11.364Z,9.60
2023-03-31T02:23:17.108Z,9.70
2023-03-31T02:26:25.525Z,9.60
2023-03-31T02:29:30.439Z,9.60
2023-03-31T02:32:37.218Z,9.60
2023-03-31T02:35:41.001Z,9.60
2023-03-31T02:38:49.031Z,9.60
2023-03-31T02:41:52.419Z,9.60
2023-03-31T02:45:04.058Z,9.60
2023-03-31T02:48:08.578Z,9.60
2023-03-31T02:51:40.138Z,9.60
2023-03-31T02:55:13.962Z,9.70
2023-03-31T02:58:50.222Z,9.80
2023-03-31T03:02:08.740Z,9.80
2023-03-31T03:05:21.308Z,9.70
2023-03-31T03:08:32.847Z,9.70
2023-03-31T03:11:46.181Z,9.80
2023-03-31T03:14:54.974Z,9.70
2023-03-31T03:17:59.898Z,9.70
2023-03-31T03:21:03.470Z,9.70
2023-03-31T03:24:07.542Z,9.70
2023-03-31T03:27:10.985Z,9.80
2023-03-31T03:30:15.483Z,9.80
2023-03-31T03:33:20.441Z,9.80
2023-03-31T03:36:23.852Z,9.80
2023-03-31T03:39:27.341Z,9.80
2023-03-31T03:42:30.549Z,9.80
2023-03-31T03:45:34.201Z,9.80
2023-03-31T03:48:39.119Z,9.90
2023-03-31T03:51:42.411Z,9.90
2023-03-31T03:54:45.692Z,9.90
2023-03-31T03:57:48.787Z,10.00
2023-03-31T04:00:51.996Z,9.90
2023-03-31T04:03:56.910Z,9.80
2023-03-31T04:07:00.147Z,9.80
2023-03-31T04:10:03.355Z,9.90
2023-03-31T04:13:06.814Z,10.00
2023-03-31T04:16:09.949Z,10.00
2023-03-31T04:19:17.503Z,10.00
2023-03-31T04:22:20.711Z,10.00
2023-03-31T04:25:23.782Z,10.00
2023-03-31T04:28:26.862Z,10.00
2023-03-31T04:31:30.724Z,10.00
2023-03-31T04:34:38.189Z,10.00
2023-03-31T04:37:41.216Z,9.80
2023-03-31T04:40:44.772Z,9.80
2023-03-31T04:43:48.052Z,9.80
2023-03-31T04:46:52.492Z,9.80
2023-03-31T04:49:57.191Z,9.80
2023-03-31T04:53:03.235Z,9.90
2023-03-31T04:56:07.951Z,9.80
2023-03-31T04:59:11.369Z,9.80
2023-03-31T05:02:16.031Z,9.80
2023-03-31T05:05:20.492Z,9.80
2023-03-31T05:08:23.484Z,9.80
2023-03-31T05:11:27.372Z,9.80
2023-03-31T05:14:30.462Z,9.80
2023-03-31T05:17:34.434Z,9.80
2023-03-31T05:20:39.020Z,9.70
2023-03-31T05:23:42.441Z,9.70
2023-03-31T05:26:49.796Z,9.70
2023-03-31T05:29:52.775Z,9.60
2023-03-31T05:32:56.423Z,9.60
2023-03-31T05:36:01.216Z,9.70
2023-03-31T05:39:04.437Z,9.70
2023-03-31T05:42:07.618Z,9.70
2023-03-31T05:45:10.999Z,9.70
2023-03-31T05:48:14.377Z,9.70
2023-03-31T05:51:18.716Z,9.80
2023-03-31T05:54:22.785Z,10.00
2023-03-31T05:57:26.020Z,10.10
2023-03-31T06:00:29.500Z,10.10
2023-03-31T06:03:35.152Z,10.10
2023-03-31T06:06:39.582Z,10.20
2023-03-31T06:09:43.469Z,10.20
2023-03-31T06:12:48.468Z,10.30
2023-03-31T06:15:55.792Z,10.30
2023-03-31T06:18:59.136Z,10.30
2023-03-31T06:22:03.651Z,10.40
2023-03-31T06:25:09.716Z,10.40
2023-03-31T06:28:12.720Z,10.50
2023-03-31T06:31:17.324Z,10.60
2023-03-31T06:34:21.456Z,10.70
2023-03-31T06:37:26.135Z,10.70
2023-03-31T06:40:29.200Z,10.80
2023-03-31T06:43:32.820Z,10.70
2023-03-31T06:46:36.029Z,10.70
2023-03-31T06:49:39.374Z,10.80
2023-03-31T06:52:43.796Z,11.00
2023-03-31T06:55:46.776Z,11.30
2023-03-31T06:58:49.919Z,11.50
2023-03-31T07:01:53.297Z,11.70
2023-03-31T07:04:56.330Z,11.90
2023-03-31T07:08:01.495Z,12.00
2023-03-31T07:11:05.242Z,12.00
2023-03-31T07:14:08.812Z,11.90
2023-03-31T07:17:11.807Z,12.20
2023-03-31T07:20:16.614Z,12.50
2023-03-31T07:23:21.611Z,12.30
2023-03-31T07:26:24.925Z,12.30
2023-03-31T07:29:28.321Z,12.40
2023-03-31T07:32:31.400Z,12.50
2023-03-31T07:35:36.951Z,12.70
2023-03-31T07:38:41.880Z,12.60
2023-03-31T07:41:45.317Z,12.50
2023-03-31T07:44:48.367Z,12.50
2023-03-31T07:47:51.933Z,12.50
2023-03-31T07:50:55.152Z,12.50
2023-03-31T07:53:59.457Z,12.60
2023-03-31T07:57:04.665Z,12.60
2023-03-31T08:00:12.530Z,12.70
2023-03-31T08:03:15.832Z,12.90
2023-03-31T08:06:20.734Z,13.10
2023-03-31T08:09:25.353Z,13.10
2023-03-31T08:12:28.595Z,13.20
2023-03-31T08:15:31.688Z,13.10
2023-03-31T08:18:35.051Z,12.80
2023-03-31T08:21:38.018Z,12.90
2023-03-31T08:24:42.401Z,12.90
2023-03-31T08:27:46.707Z,13.10
2023-03-31T08:30:49.740Z,13.30
2023-03-31T08:33:52.791Z,13.50
2023-03-31T08:36:56.497Z,13.60
2023-03-31T08:40:01.322Z,13.70
2023-03-31T08:43:11.776Z,13.80
2023-03-31T08:46:18.854Z,13.90
2023-03-31T08:49:23.459Z,14.10
2023-03-31T08:52:31.615Z,14.30
2023-03-31T08:55:49.932Z,14.30
2023-03-31T08:58:55.476Z,14.10
2023-03-31T09:02:05.969Z,14.10
2023-03-31T09:05:32.710Z,14.30
2023-03-31T09:08:38.856Z,14.30
2023-03-31T09:11:49.056Z,14.30
2023-03-31T09:14:59.017Z,14.40
2023-03-31T09:18:08.292Z,14.10
2023-03-31T09:21:18.846Z,14.30
2023-03-31T09:24:27.381Z,14.40
2023-03-31T09:27:37.117Z,14.70
2023-03-31T09:30:42.644Z,14.50
2023-03-31T09:33:48.065Z,14.40
2023-03-31T09:36:51.059Z,14.30
2023-03-31T09:39:54.266Z,14.30
2023-03-31T09:43:02.596Z,14.50
2023-03-31T09:46:13.628Z,14.50
2023-03-31T09:49:19.430Z,14.50
2023-03-31T09:52:29.974Z,14.40
2023-03-31T09:55:44.205Z,14.40
2023-03-31T09:58:48.576Z,14.20
2023-03-31T10:01:55.099Z,14.20
2023-03-31T10:04:58.147Z,14.10
2023-03-31T10:08:24.251Z,14.10
2023-03-31T10:11:28.599Z,14.30
2023-03-31T10:14:42.306Z,14.30
2023-03-31T10:17:54.925Z,14.30
2023-03-31T10:20:59.920Z,14.30
2023-03-31T10:24:10.815Z,14.30
2023-03-31T10:27:23.800Z,14.10
2023-03-31T10:30:35.402Z,14.00
2023-03-31T10:33:45.476Z,14.10
2023-03-31T10:36:51.830Z,14.10
2023-03-31T10:39:59.711Z,14.00
2023-03-31T10:43:12.905Z,13.90
2023-03-31T10:46:17.348Z,14.00
2023-03-31T10:49:27.535Z,14.20
2023-03-31T10:52:45.589Z,14.20
2023-03-31T10:56:01.607Z,14.10
2023-03-31T10:59:18.013Z,14.30
2023-03-31T11:02:42.438Z,14.30
2023-03-31T11:05:50.964Z,14.30
2023-03-31T11:09:04.360Z,14.10
2023-03-31T11:12:18.089Z,14.10
2023-03-31T11:15:24.931Z,13.90
2023-03-31T11:18:44.096Z,14.00
2023-03-31T11:21:59.387Z,14.20
2023-03-31T11:25:20.715Z,14.30
2023-03-31T11:28:50.857Z,14.30
2023-03-31T11:32:00.126Z,14.50
2023-03-31T11:35:18.742Z,14.60
2023-03-31T11:38:38.466Z,14.50
2023-03-31T11:41:46.493Z,14.50
2023-03-31T11:44:54.028Z,14.60
2023-03-31T11:48:06.892Z,14.70
2023-03-31T11:51:18.088Z,14.50
2023-03-31T11:54:28.507Z,14.60
2023-03-31T11:57:34.597Z,14.40
2023-03-31T12:00:41.963Z,14.60
2023-03-31T12:03:53.731Z,14.60
2023-03-31T12:07:04.598Z,14.80
2023-03-31T12:10:18.940Z,14.80
2023-03-31T12:13:34.338Z,14.60
2023-03-31T12:16:42.453Z,14.60
2023-03-31T12:19:49.747Z,14.30
2023-03-31T12:23:16.070Z,14.10
2023-03-31T12:26:41.188Z,14.10
2023-03-31T12:29:47.843Z,13.90
2023-03-31T12:32:58.066Z,14.10
2023-03-31T12:36:15.754Z,14.40
2023-03-31T12:39:33.102Z,14.20
2023-03-31T12:43:00.565Z,14.30
2023-03-31T12:46:18.954Z,14.30
2023-03-31T12:49:35.284Z,14.20
2023-03-31T12:52:52.225Z,14.00
2023-03-31T12:55:58.790Z,13.60
2023-03-31T12:59:19.642Z,13.00
2023-03-31T13:02:27.468Z,12.80
2023-03-31T13:05:48.779Z,12.50
2023-03-31T13:09:09.400Z,12.30
2023-03-31T13:12:18.771Z,12.10
2023-03-31T13:15:22.097Z,12.00
2023-03-31T13:18:25.852Z,11.90
2023-03-31T13:21:29.273Z,11.90
2023-03-31T13:24:33.609Z,11.70
2023-03-31T13:27:39.406Z,11.70
2023-03-31T13:30:51.677Z,11.70
2023-03-31T13:33:58.431Z,11.70
2023-03-31T13:37:14.128Z,11.70
2023-03-31T13:40:33.285Z,11.50
2023-03-31T13:44:07.394Z,11.30
2023-03-31T13:47:42.027Z,11.20
2023-03-31T13:50:59.626Z,11.10
2023-03-31T13:54:33.231Z,11.00
2023-03-31T13:58:11.436Z,10.90
2023-03-31T14:01:46.090Z,10.90
2023-03-31T14:05:07.009Z,10.70
2023-03-31T14:08:14.685Z,10.70
2023-03-31T14:11:23.134Z,10.60
2023-03-31T14:14:27.295Z,10.60
2023-03-31T14:17:34.400Z,10.60
2023-03-31T14:20:50.543Z,10.40
2023-03-31T14:24:04.676Z,10.40
2023-03-31T14:27:20.687Z,10.40
2023-03-31T14:30:34.675Z,10.30
2023-03-31T14:33:47.367Z,10.40
2023-03-31T14:36:59.001Z,10.40
2023-03-31T14:40:03.863Z,10.30
2023-03-31T14:43:07.405Z,10.30
2023-03-31T14:46:11.140Z,10.30
2023-03-31T14:49:22.580Z,10.20
2023-03-31T14:52:25.957Z,10.20
2023-03-31T14:55:44.165Z,10.30
2023-03-31T14:58:55.153Z,10.10
2023-03-31T15:02:00.258Z,10.10
2023-03-31T15:05:07.565Z,10.10
2023-03-31T15:08:15.643Z,10.20
2023-03-31T15:11:20.846Z,10.20
2023-03-31T15:14:24.429Z,10.10
2023-03-31T15:17:32.383Z,10.20
2023-03-31T15:20:41.183Z,10.20
2023-03-31T15:23:44.165Z,10.20
2023-03-31T15:26:52.756Z,10.20
2023-03-31T15:29:58.418Z,10.20
2023-03-31T15:33:15.579Z,10.20
2023-03-31T15:36:23.612Z,10.30
2023-03-31T15:39:29.432Z,10.20
2023-03-31T15:42:34.245Z,10.30
2023-03-31T15:45:46.622Z,10.20
2023-03-31T15:48:54.359Z,10.20
2023-03-31T15:52:00.557Z,10.20
2023-03-31T15:55:24.063Z,10.20
2023-03-31T15:58:48.468Z,10.20
2023-03-31T16:01:53.163Z,10.20
2023-03-31T16:04:59.961Z,10.20
2023-03-31T16:08:06.070Z,10.30
2023-03-31T16:11:15.302Z,10.30
2023-03-31T16:14:21.738Z,10.30
2023-03-31T16:17:33.167Z,10.30
2023-03-31T16:20:38.559Z,10.30
2023-03-31T16:23:45.462Z,10.30
2023-03-31T16:26:49.854Z,10.30
2023-03-31T16:30:06.038Z,10.30
2023-03-31T16:33:10.828Z,10.30
2023-03-31T16:36:16.121Z,10.20
2023-03-31T16:39:20.975Z,10.20
2023-03-31T16:42:24.360Z,10.20
2023-03-31T16:45:27.258Z,10.10
2023-03-31T16:48:33.176Z,10.10
2023-03-31T16:51:36.208Z,10.10
2023-03-31T16:54:40.778Z,10.10
2023-03-31T16:57:43.839Z,10.10
2023-03-31T17:00:47.107Z,10.00
2023-03-31T17:03:50.592Z,10.10
2023-03-31T17:06:55.773Z,10.10
2023-03-31T17:10:00.334Z,10.00
2023-03-31T17:13:03.544Z,10.00
2023-03-31T17:16:16.205Z,10.00
2023-03-31T17:19:22.634Z,10.00
2023-03-31T17:22:26.040Z,10.00
2023-03-31T17:25:30.536Z,10.00
2023-03-31T17:28:34.299Z,10.00
2023-03-31T17:31:37.245Z,10.00
2023-03-31T17:34:40.432Z,10.00
2023-03-31T17:37:44.330Z,10.00
2023-03-31T17:40:48.834Z,10.00
2023-03-31T17:43:51.953Z,10.00
2023-03-31T17:46:54.998Z,10.00
2023-03-31T17:49:57.937Z,10.00
2023-03-31T17:53:08.718Z,10.00
2023-03-31T17:56:14.053Z,10.00
2023-03-31T17:59:17.162Z,10.00
2023-03-31T18:02:20.837Z,10.00
2023-03-31T18:05:23.867Z,10.00
2023-03-31T18:08:26.928Z,10.00
2023-03-31T18:11:31.873Z,10.00
2023-03-31T18:14:35.314Z,10.10
2023-03-31T18:17:38.394Z,10.10
2023-03-31T18:20:41.591Z,10.00
2023-03-31T18:23:44.651Z,10.00
2023-03-31T18:26:49.388Z,10.10
2023-03-31T18:29:52.707Z,10.10
2023-03-31T18:32:56.157Z,10.10
2023-03-31T18:35:59.428Z,10.00
2023-03-31T18:39:02.603Z,10.00
2023-03-31T18:42:07.669Z,10.00
2023-03-31T18:45:11.240Z,10.00
2023-03-31T18:48:14.597Z,10.00
2023-03-31T18:51:19.228Z,10.00
2023-03-31T18:54:22.978Z,10.00
2023-03-31T18:57:27.772Z,10.00
2023-03-31T19:00:31.060Z,10.00
2023-03-31T19:03:34.363Z,10.00
2023-03-31T19:06:37.510Z,10.00
2023-03-31T19:09:40.641Z,10.00
2023-03-31T19:12:49.357Z,10.00
2023-03-31T19:15:53.313Z,10.00
2023-03-31T19:19:08.401Z,10.10
2023-03-31T19:22:12.153Z,10.00
2023-03-31T19:25:16.604Z,10.10
2023-03-31T19:32:09.602Z,10.10
2023-03-31T19:35:16.200Z,10.10
2023-03-31T19:38:24.368Z,10.00
2023-03-31T19:41:31.039Z,10.00
2023-03-31T19:56:50.523Z,10.00
2023-03-31T20:07:29.159Z,9.80
2023-03-31T20:19:10.558Z,10.00
2023-03-31T22:20:51.620Z,9.40
2023-03-31T22:23:57.659Z,9.40
2023-03-31T22:27:09.310Z,9.40
2023-03-31T22:30:15.056Z,9.40
2023-03-31T22:33:19.196Z,9.40
2023-03-31T22:36:24.463Z,9.40
2023-03-31T22:39:28.112Z,9.40
2023-03-31T22:45:58.088Z,9.30
2023-03-31T22:49:02.524Z,9.30
2023-03-31T22:52:08.407Z,9.20
2023-03-31T22:55:14.021Z,9.20
2023-03-31T22:58:18.172Z,9.20
2023-03-31T23:04:56.209Z,9.20
2023-03-31T23:08:01.117Z,9.20
2023-03-31T23:11:06.365Z,9.20
2023-03-31T23:14:13.225Z,9.20
2023-03-31T23:17:16.531Z,9.20
2023-03-31T23:20:21.066Z,9.20
2023-03-31T23:23:26.785Z,9.20
2023-03-31T23:26:32.597Z,9.30
2023-03-31T23:29:36.355Z,9.20
2023-03-31T23:32:42.979Z,9.20
2023-03-31T23:35:51.607Z,9.20
2023-03-31T23:38:58.430Z,9.20
2023-03-31T23:42:02.635Z,9.20
2023-03-31T23:45:07.364Z,9.20
2023-03-31T23:48:13.130Z,9.20
2023-03-31T23:51:16.594Z,9.20
2023-03-31T23:54:21.773Z,9.20
2023-03-31T23:57:27.928Z,9.20
